sensor_id;sensor_type;location;lat;lon;timestamp;pressure;altitude;pressure_sealevel;temperature
19644;BMP180;9970;-36.854;174.870;2023-06-10T00:02:55;101462.00;;;13.40
19644;BMP180;9970;-36.854;174.870;2023-06-10T00:05:29;101451.00;;;13.40
19644;BMP180;9970;-36.854;174.870;2023-06-10T00:08:02;101457.00;;;13.40
19644;BMP180;9970;-36.854;174.870;2023-06-10T00:10:37;101458.00;;;13.50
19644;BMP180;9970;-36.854;174.870;2023-06-10T00:13:10;101456.00;;;13.50
19644;BMP180;9970;-36.854;174.870;2023-06-10T00:15:46;101456.00;;;13.50
19644;BMP180;9970;-36.854;174.870;2023-06-10T00:18:23;101452.00;;;13.50
19644;BMP180;9970;-36.854;174.870;2023-06-10T00:20:57;101440.00;;;13.50
19644;BMP180;9970;-36.854;174.870;2023-06-10T00:23:31;101436.00;;;13.50
19644;BMP180;9970;-36.854;174.870;2023-06-10T00:26:08;101433.00;;;13.60
19644;BMP180;9970;-36.854;174.870;2023-06-10T00:28:41;101423.00;;;13.60
19644;BMP180;9970;-36.854;174.870;2023-06-10T00:31:15;101423.00;;;13.60
19644;BMP180;9970;-36.854;174.870;2023-06-10T00:33:48;101424.00;;;13.70
19644;BMP180;9970;-36.854;174.870;2023-06-10T00:36:21;101413.00;;;13.70
19644;BMP180;9970;-36.854;174.870;2023-06-10T00:38:55;101416.00;;;13.70
19644;BMP180;9970;-36.854;174.870;2023-06-10T00:41:28;101408.00;;;13.70
19644;BMP180;9970;-36.854;174.870;2023-06-10T00:44:00;101409.00;;;13.80
19644;BMP180;9970;-36.854;174.870;2023-06-10T00:46:33;101415.00;;;13.80
19644;BMP180;9970;-36.854;174.870;2023-06-10T00:49:06;101410.00;;;13.80
19644;BMP180;9970;-36.854;174.870;2023-06-10T00:51:39;101412.00;;;13.80
19644;BMP180;9970;-36.854;174.870;2023-06-10T00:54:13;101398.00;;;13.90
19644;BMP180;9970;-36.854;174.870;2023-06-10T00:56:46;101398.00;;;13.90
19644;BMP180;9970;-36.854;174.870;2023-06-10T00:59:19;101408.00;;;14.00
19644;BMP180;9970;-36.854;174.870;2023-06-10T01:01:52;101400.00;;;14.00
19644;BMP180;9970;-36.854;174.870;2023-06-10T01:04:26;101408.00;;;14.00
19644;BMP180;9970;-36.854;174.870;2023-06-10T01:15:19;101390.00;;;14.10
19644;BMP180;9970;-36.854;174.870;2023-06-10T01:18:00;101384.00;;;14.10
19644;BMP180;9970;-36.854;174.870;2023-06-10T01:20:33;101378.00;;;14.10
19644;BMP180;9970;-36.854;174.870;2023-06-10T01:23:08;101375.00;;;14.20
19644;BMP180;9970;-36.854;174.870;2023-06-10T01:25:53;101367.00;;;14.20
19644;BMP180;9970;-36.854;174.870;2023-06-10T01:28:57;101356.00;;;14.20
19644;BMP180;9970;-36.854;174.870;2023-06-10T01:34:26;101352.00;;;14.30
19644;BMP180;9970;-36.854;174.870;2023-06-10T01:36:59;101343.00;;;14.30
19644;BMP180;9970;-36.854;174.870;2023-06-10T01:39:33;101346.00;;;14.40
19644;BMP180;9970;-36.854;174.870;2023-06-10T01:42:07;101351.00;;;14.40
19644;BMP180;9970;-36.854;174.870;2023-06-10T01:44:41;101350.00;;;14.40
19644;BMP180;9970;-36.854;174.870;2023-06-10T01:47:14;101349.00;;;14.40
19644;BMP180;9970;-36.854;174.870;2023-06-10T01:49:46;101341.00;;;14.40
19644;BMP180;9970;-36.854;174.870;2023-06-10T01:52:23;101346.00;;;14.40
19644;BMP180;9970;-36.854;174.870;2023-06-10T01:54:56;101342.00;;;14.40
19644;BMP180;9970;-36.854;174.870;2023-06-10T01:57:29;101345.00;;;14.40
19644;BMP180;9970;-36.854;174.870;2023-06-10T02:00:02;101343.00;;;14.40
19644;BMP180;9970;-36.854;174.870;2023-06-10T02:02:36;101345.00;;;14.40
19644;BMP180;9970;-36.854;174.870;2023-06-10T02:05:09;101350.00;;;14.40
19644;BMP180;9970;-36.854;174.870;2023-06-10T02:07:42;101341.00;;;14.40
19644;BMP180;9970;-36.854;174.870;2023-06-10T02:10:15;101351.00;;;14.40
19644;BMP180;9970;-36.854;174.870;2023-06-10T02:12:48;101348.00;;;14.40
19644;BMP180;9970;-36.854;174.870;2023-06-10T02:15:20;101343.00;;;14.40
19644;BMP180;9970;-36.854;174.870;2023-06-10T02:17:53;101347.00;;;14.40
19644;BMP180;9970;-36.854;174.870;2023-06-10T02:20:27;101340.00;;;14.40
19644;BMP180;9970;-36.854;174.870;2023-06-10T02:23:00;101337.00;;;14.40
19644;BMP180;9970;-36.854;174.870;2023-06-10T02:25:33;101343.00;;;14.40
19644;BMP180;9970;-36.854;174.870;2023-06-10T02:28:07;101334.00;;;14.40
19644;BMP180;9970;-36.854;174.870;2023-06-10T02:30:43;101342.00;;;14.40
19644;BMP180;9970;-36.854;174.870;2023-06-10T02:33:16;101339.00;;;14.40
19644;BMP180;9970;-36.854;174.870;2023-06-10T02:35:49;101347.00;;;14.40
19644;BMP180;9970;-36.854;174.870;2023-06-10T02:38:23;101339.00;;;14.40
19644;BMP180;9970;-36.854;174.870;2023-06-10T02:40:56;101341.00;;;14.40
19644;BMP180;9970;-36.854;174.870;2023-06-10T02:43:29;101342.00;;;14.40
19644;BMP180;9970;-36.854;174.870;2023-06-10T02:46:02;101350.00;;;14.40
19644;BMP180;9970;-36.854;174.870;2023-06-10T02:48:45;101339.00;;;14.40
19644;BMP180;9970;-36.854;174.870;2023-06-10T02:51:19;101335.00;;;14.40
19644;BMP180;9970;-36.854;174.870;2023-06-10T02:53:52;101336.00;;;14.40
19644;BMP180;9970;-36.854;174.870;2023-06-10T02:56:25;101342.00;;;14.40
19644;BMP180;9970;-36.854;174.870;2023-06-10T02:58:58;101343.00;;;14.40
19644;BMP180;9970;-36.854;174.870;2023-06-10T03:01:31;101342.00;;;14.40
19644;BMP180;9970;-36.854;174.870;2023-06-10T03:04:05;101338.00;;;14.40
19644;BMP180;9970;-36.854;174.870;2023-06-10T03:06:38;101336.00;;;14.40
19644;BMP180;9970;-36.854;174.870;2023-06-10T03:09:12;101346.00;;;14.40
19644;BMP180;9970;-36.854;174.870;2023-06-10T03:11:46;101350.00;;;14.40
19644;BMP180;9970;-36.854;174.870;2023-06-10T03:14:18;101342.00;;;14.40
19644;BMP180;9970;-36.854;174.870;2023-06-10T03:16:52;101341.00;;;14.40
19644;BMP180;9970;-36.854;174.870;2023-06-10T03:19:28;101346.00;;;14.40
19644;BMP180;9970;-36.854;174.870;2023-06-10T03:22:12;101345.00;;;14.40
19644;BMP180;9970;-36.854;174.870;2023-06-10T03:24:45;101346.00;;;14.30
19644;BMP180;9970;-36.854;174.870;2023-06-10T03:27:20;101362.00;;;14.30
19644;BMP180;9970;-36.854;174.870;2023-06-10T03:29:52;101348.00;;;14.40
19644;BMP180;9970;-36.854;174.870;2023-06-10T03:32:25;101357.00;;;14.40
19644;BMP180;9970;-36.854;174.870;2023-06-10T03:34:58;101355.00;;;14.30
19644;BMP180;9970;-36.854;174.870;2023-06-10T03:37:32;101345.00;;;14.30
19644;BMP180;9970;-36.854;174.870;2023-06-10T03:40:06;101345.00;;;14.30
19644;BMP180;9970;-36.854;174.870;2023-06-10T03:42:39;101350.00;;;14.30
19644;BMP180;9970;-36.854;174.870;2023-06-10T03:45:12;101365.00;;;14.30
19644;BMP180;9970;-36.854;174.870;2023-06-10T03:47:45;101367.00;;;14.30
19644;BMP180;9970;-36.854;174.870;2023-06-10T03:50:19;101366.00;;;14.40
19644;BMP180;9970;-36.854;174.870;2023-06-10T03:52:52;101368.00;;;14.40
19644;BMP180;9970;-36.854;174.870;2023-06-10T03:55:25;101371.00;;;14.30
19644;BMP180;9970;-36.854;174.870;2023-06-10T03:57:58;101366.00;;;14.40
19644;BMP180;9970;-36.854;174.870;2023-06-10T04:00:30;101368.00;;;14.40
19644;BMP180;9970;-36.854;174.870;2023-06-10T04:03:05;101374.00;;;14.40
19644;BMP180;9970;-36.854;174.870;2023-06-10T04:05:40;101372.00;;;14.30
19644;BMP180;9970;-36.854;174.870;2023-06-10T04:08:13;101380.00;;;14.30
19644;BMP180;9970;-36.854;174.870;2023-06-10T04:10:46;101379.00;;;14.30
19644;BMP180;9970;-36.854;174.870;2023-06-10T04:13:19;101378.00;;;14.30
19644;BMP180;9970;-36.854;174.870;2023-06-10T04:15:52;101375.00;;;14.30
19644;BMP180;9970;-36.854;174.870;2023-06-10T04:18:26;101383.00;;;14.30
19644;BMP180;9970;-36.854;174.870;2023-06-10T04:20:58;101376.00;;;14.30
19644;BMP180;9970;-36.854;174.870;2023-06-10T04:23:32;101383.00;;;14.30
19644;BMP180;9970;-36.854;174.870;2023-06-10T04:26:05;101382.00;;;14.30
19644;BMP180;9970;-36.854;174.870;2023-06-10T04:28:38;101384.00;;;14.30
19644;BMP180;9970;-36.854;174.870;2023-06-10T04:31:11;101388.00;;;14.30
19644;BMP180;9970;-36.854;174.870;2023-06-10T04:33:48;101392.00;;;14.30
19644;BMP180;9970;-36.854;174.870;2023-06-10T04:36:20;101391.00;;;14.30
19644;BMP180;9970;-36.854;174.870;2023-06-10T04:38:55;101392.00;;;14.30
19644;BMP180;9970;-36.854;174.870;2023-06-10T04:41:28;101392.00;;;14.30
19644;BMP180;9970;-36.854;174.870;2023-06-10T04:44:01;101392.00;;;14.20
19644;BMP180;9970;-36.854;174.870;2023-06-10T04:46:34;101385.00;;;14.20
19644;BMP180;9970;-36.854;174.870;2023-06-10T04:49:07;101385.00;;;14.20
19644;BMP180;9970;-36.854;174.870;2023-06-10T04:51:40;101399.00;;;14.20
19644;BMP180;9970;-36.854;174.870;2023-06-10T04:54:13;101399.00;;;14.20
19644;BMP180;9970;-36.854;174.870;2023-06-10T04:56:46;101399.00;;;14.20
19644;BMP180;9970;-36.854;174.870;2023-06-10T04:59:24;101401.00;;;14.20
19644;BMP180;9970;-36.854;174.870;2023-06-10T05:01:57;101412.00;;;14.20
19644;BMP180;9970;-36.854;174.870;2023-06-10T05:04:30;101410.00;;;14.20
19644;BMP180;9970;-36.854;174.870;2023-06-10T05:07:03;101408.00;;;14.10
19644;BMP180;9970;-36.854;174.870;2023-06-10T05:09:39;101388.00;;;14.10
19644;BMP180;9970;-36.854;174.870;2023-06-10T05:12:12;101397.00;;;14.10
19644;BMP180;9970;-36.854;174.870;2023-06-10T05:14:45;101408.00;;;14.10
19644;BMP180;9970;-36.854;174.870;2023-06-10T05:17:17;101408.00;;;14.00
19644;BMP180;9970;-36.854;174.870;2023-06-10T05:19:51;101405.00;;;14.00
19644;BMP180;9970;-36.854;174.870;2023-06-10T05:22:23;101404.00;;;14.00
19644;BMP180;9970;-36.854;174.870;2023-06-10T05:24:57;101412.00;;;14.00
19644;BMP180;9970;-36.854;174.870;2023-06-10T05:27:29;101408.00;;;14.00
19644;BMP180;9970;-36.854;174.870;2023-06-10T05:30:03;101407.00;;;14.00
19644;BMP180;9970;-36.854;174.870;2023-06-10T05:32:36;101404.00;;;13.90
19644;BMP180;9970;-36.854;174.870;2023-06-10T05:35:09;101402.00;;;13.90
19644;BMP180;9970;-36.854;174.870;2023-06-10T05:37:42;101411.00;;;13.90
19644;BMP180;9970;-36.854;174.870;2023-06-10T05:40:16;101416.00;;;13.80
19644;BMP180;9970;-36.854;174.870;2023-06-10T05:42:49;101413.00;;;13.80
19644;BMP180;9970;-36.854;174.870;2023-06-10T05:45:22;101414.00;;;13.80
19644;BMP180;9970;-36.854;174.870;2023-06-10T05:47:55;101415.00;;;13.80
19644;BMP180;9970;-36.854;174.870;2023-06-10T05:50:28;101415.00;;;13.70
19644;BMP180;9970;-36.854;174.870;2023-06-10T05:53:01;101415.00;;;13.70
19644;BMP180;9970;-36.854;174.870;2023-06-10T05:55:34;101419.00;;;13.70
19644;BMP180;9970;-36.854;174.870;2023-06-10T05:58:07;101428.00;;;13.70
19644;BMP180;9970;-36.854;174.870;2023-06-10T06:00:40;101427.00;;;13.70
19644;BMP180;9970;-36.854;174.870;2023-06-10T06:03:13;101435.00;;;13.70
19644;BMP180;9970;-36.854;174.870;2023-06-10T06:05:46;101431.00;;;13.70
19644;BMP180;9970;-36.854;174.870;2023-06-10T06:08:19;101434.00;;;13.70
19644;BMP180;9970;-36.854;174.870;2023-06-10T06:10:52;101446.00;;;13.60
19644;BMP180;9970;-36.854;174.870;2023-06-10T06:13:25;101437.00;;;13.60
19644;BMP180;9970;-36.854;174.870;2023-06-10T06:15:58;101445.00;;;13.60
19644;BMP180;9970;-36.854;174.870;2023-06-10T06:18:31;101451.00;;;13.60
19644;BMP180;9970;-36.854;174.870;2023-06-10T06:21:05;101450.00;;;13.60
19644;BMP180;9970;-36.854;174.870;2023-06-10T06:23:38;101459.00;;;13.60
19644;BMP180;9970;-36.854;174.870;2023-06-10T06:26:11;101455.00;;;13.50
19644;BMP180;9970;-36.854;174.870;2023-06-10T06:28:44;101452.00;;;13.50
19644;BMP180;9970;-36.854;174.870;2023-06-10T06:31:17;101465.00;;;13.50
19644;BMP180;9970;-36.854;174.870;2023-06-10T06:33:50;101462.00;;;13.50
19644;BMP180;9970;-36.854;174.870;2023-06-10T06:36:23;101467.00;;;13.50
19644;BMP180;9970;-36.854;174.870;2023-06-10T06:38:56;101463.00;;;13.50
19644;BMP180;9970;-36.854;174.870;2023-06-10T06:41:29;101466.00;;;13.50
19644;BMP180;9970;-36.854;174.870;2023-06-10T06:44:03;101469.00;;;13.40
19644;BMP180;9970;-36.854;174.870;2023-06-10T06:46:36;101467.00;;;13.40
19644;BMP180;9970;-36.854;174.870;2023-06-10T06:49:09;101474.00;;;13.40
19644;BMP180;9970;-36.854;174.870;2023-06-10T06:51:42;101477.00;;;13.40
19644;BMP180;9970;-36.854;174.870;2023-06-10T06:54:15;101479.00;;;13.40
19644;BMP180;9970;-36.854;174.870;2023-06-10T06:56:48;101474.00;;;13.30
19644;BMP180;9970;-36.854;174.870;2023-06-10T06:59:23;101480.00;;;13.30
19644;BMP180;9970;-36.854;174.870;2023-06-10T07:01:57;101471.00;;;13.30
19644;BMP180;9970;-36.854;174.870;2023-06-10T07:04:29;101478.00;;;13.20
19644;BMP180;9970;-36.854;174.870;2023-06-10T07:07:03;101465.00;;;13.10
19644;BMP180;9970;-36.854;174.870;2023-06-10T07:09:37;101466.00;;;13.10
19644;BMP180;9970;-36.854;174.870;2023-06-10T07:12:10;101463.00;;;13.10
19644;BMP180;9970;-36.854;174.870;2023-06-10T07:14:43;101477.00;;;13.10
19644;BMP180;9970;-36.854;174.870;2023-06-10T07:17:16;101475.00;;;13.00
19644;BMP180;9970;-36.854;174.870;2023-06-10T07:19:53;101475.00;;;13.00
19644;BMP180;9970;-36.854;174.870;2023-06-10T07:22:27;101486.00;;;13.00
19644;BMP180;9970;-36.854;174.870;2023-06-10T07:25:00;101491.00;;;13.00
19644;BMP180;9970;-36.854;174.870;2023-06-10T07:27:33;101482.00;;;12.90
19644;BMP180;9970;-36.854;174.870;2023-06-10T07:30:08;101488.00;;;12.90
19644;BMP180;9970;-36.854;174.870;2023-06-10T07:32:42;101490.00;;;12.90
19644;BMP180;9970;-36.854;174.870;2023-06-10T07:35:15;101491.00;;;12.90
19644;BMP180;9970;-36.854;174.870;2023-06-10T07:37:48;101485.00;;;12.90
19644;BMP180;9970;-36.854;174.870;2023-06-10T07:40:21;101488.00;;;12.80
19644;BMP180;9970;-36.854;174.870;2023-06-10T07:42:54;101486.00;;;12.80
19644;BMP180;9970;-36.854;174.870;2023-06-10T07:45:28;101488.00;;;12.80
19644;BMP180;9970;-36.854;174.870;2023-06-10T07:48:01;101487.00;;;12.80
19644;BMP180;9970;-36.854;174.870;2023-06-10T07:50:34;101490.00;;;12.70
19644;BMP180;9970;-36.854;174.870;2023-06-10T07:53:07;101491.00;;;12.70
19644;BMP180;9970;-36.854;174.870;2023-06-10T07:55:40;101489.00;;;12.70
19644;BMP180;9970;-36.854;174.870;2023-06-10T07:58:13;101484.00;;;12.70
19644;BMP180;9970;-36.854;174.870;2023-06-10T08:00:46;101487.00;;;12.70
19644;BMP180;9970;-36.854;174.870;2023-06-10T08:03:19;101484.00;;;12.60
19644;BMP180;9970;-36.854;174.870;2023-06-10T08:05:52;101490.00;;;12.60
19644;BMP180;9970;-36.854;174.870;2023-06-10T08:08:25;101485.00;;;12.60
19644;BMP180;9970;-36.854;174.870;2023-06-10T08:10:57;101480.00;;;12.60
19644;BMP180;9970;-36.854;174.870;2023-06-10T08:13:30;101485.00;;;12.60
19644;BMP180;9970;-36.854;174.870;2023-06-10T08:16:03;101490.00;;;12.60
19644;BMP180;9970;-36.854;174.870;2023-06-10T08:18:37;101490.00;;;12.60
19644;BMP180;9970;-36.854;174.870;2023-06-10T08:21:09;101490.00;;;12.60
19644;BMP180;9970;-36.854;174.870;2023-06-10T08:23:46;101493.00;;;12.50
19644;BMP180;9970;-36.854;174.870;2023-06-10T08:26:19;101494.00;;;12.50
19644;BMP180;9970;-36.854;174.870;2023-06-10T08:28:52;101495.00;;;12.50
19644;BMP180;9970;-36.854;174.870;2023-06-10T08:31:26;101496.00;;;12.50
19644;BMP180;9970;-36.854;174.870;2023-06-10T08:33:59;101496.00;;;12.50
19644;BMP180;9970;-36.854;174.870;2023-06-10T08:36:32;101501.00;;;12.40
19644;BMP180;9970;-36.854;174.870;2023-06-10T08:39:05;101492.00;;;12.40
19644;BMP180;9970;-36.854;174.870;2023-06-10T08:41:41;101497.00;;;12.40
19644;BMP180;9970;-36.854;174.870;2023-06-10T08:44:31;101491.00;;;12.40
19644;BMP180;9970;-36.854;174.870;2023-06-10T08:47:01;101494.00;;;12.40
19644;BMP180;9970;-36.854;174.870;2023-06-10T08:49:36;101495.00;;;12.30
19644;BMP180;9970;-36.854;174.870;2023-06-10T08:52:11;101498.00;;;12.30
19644;BMP180;9970;-36.854;174.870;2023-06-10T08:57:26;101501.00;;;12.30
19644;BMP180;9970;-36.854;174.870;2023-06-10T08:59:59;101500.00;;;12.30
19644;BMP180;9970;-36.854;174.870;2023-06-10T09:02:33;101505.00;;;12.30
19644;BMP180;9970;-36.854;174.870;2023-06-10T09:05:08;101510.00;;;12.30
19644;BMP180;9970;-36.854;174.870;2023-06-10T09:07:41;101508.00;;;12.30
19644;BMP180;9970;-36.854;174.870;2023-06-10T09:10:14;101513.00;;;12.20
19644;BMP180;9970;-36.854;174.870;2023-06-10T09:12:47;101512.00;;;12.20
19644;BMP180;9970;-36.854;174.870;2023-06-10T09:15:24;101515.00;;;12.20
19644;BMP180;9970;-36.854;174.870;2023-06-10T09:17:58;101508.00;;;12.20
19644;BMP180;9970;-36.854;174.870;2023-06-10T09:20:31;101512.00;;;12.20
19644;BMP180;9970;-36.854;174.870;2023-06-10T09:23:04;101513.00;;;12.10
19644;BMP180;9970;-36.854;174.870;2023-06-10T09:25:39;101522.00;;;12.10
19644;BMP180;9970;-36.854;174.870;2023-06-10T09:28:16;101532.00;;;12.10
19644;BMP180;9970;-36.854;174.870;2023-06-10T09:30:49;101517.00;;;12.10
19644;BMP180;9970;-36.854;174.870;2023-06-10T09:33:23;101526.00;;;12.00
19644;BMP180;9970;-36.854;174.870;2023-06-10T09:35:59;101532.00;;;12.00
19644;BMP180;9970;-36.854;174.870;2023-06-10T09:38:33;101529.00;;;12.00
19644;BMP180;9970;-36.854;174.870;2023-06-10T09:41:06;101540.00;;;12.00
19644;BMP180;9970;-36.854;174.870;2023-06-10T09:43:43;101537.00;;;11.90
19644;BMP180;9970;-36.854;174.870;2023-06-10T09:46:18;101536.00;;;11.90
19644;BMP180;9970;-36.854;174.870;2023-06-10T09:48:51;101534.00;;;11.90
19644;BMP180;9970;-36.854;174.870;2023-06-10T09:51:24;101535.00;;;11.90
19644;BMP180;9970;-36.854;174.870;2023-06-10T09:53:56;101534.00;;;11.90
19644;BMP180;9970;-36.854;174.870;2023-06-10T09:56:36;101530.00;;;11.80
19644;BMP180;9970;-36.854;174.870;2023-06-10T09:59:12;101534.00;;;11.80
19644;BMP180;9970;-36.854;174.870;2023-06-10T10:01:47;101530.00;;;11.80
19644;BMP180;9970;-36.854;174.870;2023-06-10T10:04:24;101531.00;;;11.80
19644;BMP180;9970;-36.854;174.870;2023-06-10T10:06:57;101531.00;;;11.80
19644;BMP180;9970;-36.854;174.870;2023-06-10T10:09:30;101534.00;;;11.80
19644;BMP180;9970;-36.854;174.870;2023-06-10T10:12:06;101529.00;;;11.80
19644;BMP180;9970;-36.854;174.870;2023-06-10T10:14:38;101531.00;;;11.80
19644;BMP180;9970;-36.854;174.870;2023-06-10T10:17:11;101527.00;;;11.80
19644;BMP180;9970;-36.854;174.870;2023-06-10T10:20:02;101523.00;;;11.70
19644;BMP180;9970;-36.854;174.870;2023-06-10T10:22:43;101523.00;;;11.70
19644;BMP180;9970;-36.854;174.870;2023-06-10T10:25:16;101522.00;;;11.70
19644;BMP180;9970;-36.854;174.870;2023-06-10T10:30:30;101525.00;;;11.70
19644;BMP180;9970;-36.854;174.870;2023-06-10T10:35:40;101531.00;;;11.70
19644;BMP180;9970;-36.854;174.870;2023-06-10T10:38:14;101526.00;;;11.70
19644;BMP180;9970;-36.854;174.870;2023-06-10T10:40:52;101527.00;;;11.70
19644;BMP180;9970;-36.854;174.870;2023-06-10T10:43:27;101519.00;;;11.60
19644;BMP180;9970;-36.854;174.870;2023-06-10T10:46:03;101527.00;;;11.60
19644;BMP180;9970;-36.854;174.870;2023-06-10T10:48:40;101522.00;;;11.60
19644;BMP180;9970;-36.854;174.870;2023-06-10T10:51:13;101523.00;;;11.60
19644;BMP180;9970;-36.854;174.870;2023-06-10T10:56:38;101516.00;;;11.60
19644;BMP180;9970;-36.854;174.870;2023-06-10T10:59:11;101525.00;;;11.60
19644;BMP180;9970;-36.854;174.870;2023-06-10T11:01:44;101528.00;;;11.60
19644;BMP180;9970;-36.854;174.870;2023-06-10T11:04:19;101525.00;;;11.60
19644;BMP180;9970;-36.854;174.870;2023-06-10T11:06:55;101529.00;;;11.60
19644;BMP180;9970;-36.854;174.870;2023-06-10T11:09:33;101522.00;;;11.60
19644;BMP180;9970;-36.854;174.870;2023-06-10T11:12:07;101527.00;;;11.60
19644;BMP180;9970;-36.854;174.870;2023-06-10T11:14:42;101522.00;;;11.60
19644;BMP180;9970;-36.854;174.870;2023-06-10T11:17:22;101531.00;;;11.50
19644;BMP180;9970;-36.854;174.870;2023-06-10T11:19:55;101527.00;;;11.50
19644;BMP180;9970;-36.854;174.870;2023-06-10T11:22:29;101524.00;;;11.50
19644;BMP180;9970;-36.854;174.870;2023-06-10T11:25:13;101530.00;;;11.50
19644;BMP180;9970;-36.854;174.870;2023-06-10T11:27:47;101526.00;;;11.50
19644;BMP180;9970;-36.854;174.870;2023-06-10T11:30:21;101523.00;;;11.50
19644;BMP180;9970;-36.854;174.870;2023-06-10T11:32:55;101527.00;;;11.50
19644;BMP180;9970;-36.854;174.870;2023-06-10T11:35:30;101522.00;;;11.50
19644;BMP180;9970;-36.854;174.870;2023-06-10T11:38:03;101527.00;;;11.50
19644;BMP180;9970;-36.854;174.870;2023-06-10T11:40:37;101529.00;;;11.50
19644;BMP180;9970;-36.854;174.870;2023-06-10T11:43:10;101527.00;;;11.50
19644;BMP180;9970;-36.854;174.870;2023-06-10T11:45:43;101513.00;;;11.40
19644;BMP180;9970;-36.854;174.870;2023-06-10T11:48:17;101519.00;;;11.50
19644;BMP180;9970;-36.854;174.870;2023-06-10T11:50:52;101513.00;;;11.40
19644;BMP180;9970;-36.854;174.870;2023-06-10T11:53:24;101519.00;;;11.40
19644;BMP180;9970;-36.854;174.870;2023-06-10T11:55:57;101513.00;;;11.40
19644;BMP180;9970;-36.854;174.870;2023-06-10T11:58:30;101511.00;;;11.40
19644;BMP180;9970;-36.854;174.870;2023-06-10T12:01:08;101508.00;;;11.40
19644;BMP180;9970;-36.854;174.870;2023-06-10T12:03:42;101504.00;;;11.40
19644;BMP180;9970;-36.854;174.870;2023-06-10T12:06:15;101506.00;;;11.40
19644;BMP180;9970;-36.854;174.870;2023-06-10T12:08:48;101501.00;;;11.40
19644;BMP180;9970;-36.854;174.870;2023-06-10T12:11:21;101504.00;;;11.40
19644;BMP180;9970;-36.854;174.870;2023-06-10T12:13:54;101498.00;;;11.30
19644;BMP180;9970;-36.854;174.870;2023-06-10T12:16:27;101502.00;;;11.30
19644;BMP180;9970;-36.854;174.870;2023-06-10T12:19:04;101500.00;;;11.30
19644;BMP180;9970;-36.854;174.870;2023-06-10T12:21:38;101499.00;;;11.30
19644;BMP180;9970;-36.854;174.870;2023-06-10T12:24:11;101502.00;;;11.30
19644;BMP180;9970;-36.854;174.870;2023-06-10T12:26:53;101500.00;;;11.30
19644;BMP180;9970;-36.854;174.870;2023-06-10T12:29:26;101495.00;;;11.30
19644;BMP180;9970;-36.854;174.870;2023-06-10T12:32:01;101489.00;;;11.30
19644;BMP180;9970;-36.854;174.870;2023-06-10T12:34:37;101484.00;;;11.30
19644;BMP180;9970;-36.854;174.870;2023-06-10T12:37:14;101489.00;;;11.20
19644;BMP180;9970;-36.854;174.870;2023-06-10T12:39:51;101490.00;;;11.20
19644;BMP180;9970;-36.854;174.870;2023-06-10T12:42:25;101482.00;;;11.20
19644;BMP180;9970;-36.854;174.870;2023-06-10T12:44:58;101489.00;;;11.20
19644;BMP180;9970;-36.854;174.870;2023-06-10T12:47:37;101479.00;;;11.20
19644;BMP180;9970;-36.854;174.870;2023-06-10T12:50:12;101488.00;;;11.10
19644;BMP180;9970;-36.854;174.870;2023-06-10T12:52:45;101479.00;;;11.10
19644;BMP180;9970;-36.854;174.870;2023-06-10T12:55:18;101478.00;;;11.10
19644;BMP180;9970;-36.854;174.870;2023-06-10T12:57:51;101473.00;;;11.10
19644;BMP180;9970;-36.854;174.870;2023-06-10T13:00:24;101478.00;;;11.10
19644;BMP180;9970;-36.854;174.870;2023-06-10T13:02:59;101480.00;;;11.10
19644;BMP180;9970;-36.854;174.870;2023-06-10T13:05:36;101473.00;;;11.00
19644;BMP180;9970;-36.854;174.870;2023-06-10T13:08:10;101475.00;;;11.00
19644;BMP180;9970;-36.854;174.870;2023-06-10T13:10:43;101473.00;;;11.00
19644;BMP180;9970;-36.854;174.870;2023-06-10T13:13:16;101473.00;;;11.00
19644;BMP180;9970;-36.854;174.870;2023-06-10T13:15:49;101475.00;;;11.00
19644;BMP180;9970;-36.854;174.870;2023-06-10T13:18:22;101475.00;;;11.00
19644;BMP180;9970;-36.854;174.870;2023-06-10T13:20:55;101474.00;;;11.00
19644;BMP180;9970;-36.854;174.870;2023-06-10T13:23:28;101474.00;;;10.90
19644;BMP180;9970;-36.854;174.870;2023-06-10T13:26:02;101476.00;;;11.00
19644;BMP180;9970;-36.854;174.870;2023-06-10T13:28:35;101469.00;;;10.90
19644;BMP180;9970;-36.854;174.870;2023-06-10T13:31:08;101467.00;;;10.90
19644;BMP180;9970;-36.854;174.870;2023-06-10T13:33:41;101464.00;;;10.90
19644;BMP180;9970;-36.854;174.870;2023-06-10T13:36:14;101465.00;;;10.90
19644;BMP180;9970;-36.854;174.870;2023-06-10T13:38:47;101467.00;;;10.90
19644;BMP180;9970;-36.854;174.870;2023-06-10T13:41:21;101476.00;;;10.90
19644;BMP180;9970;-36.854;174.870;2023-06-10T13:43:53;101468.00;;;10.90
19644;BMP180;9970;-36.854;174.870;2023-06-10T13:46:26;101472.00;;;10.90
19644;BMP180;9970;-36.854;174.870;2023-06-10T13:49:00;101470.00;;;10.90
19644;BMP180;9970;-36.854;174.870;2023-06-10T13:51:33;101468.00;;;10.90
19644;BMP180;9970;-36.854;174.870;2023-06-10T13:54:06;101468.00;;;10.80
19644;BMP180;9970;-36.854;174.870;2023-06-10T13:56:39;101464.00;;;10.80
19644;BMP180;9970;-36.854;174.870;2023-06-10T13:59:12;101457.00;;;10.80
19644;BMP180;9970;-36.854;174.870;2023-06-10T14:01:45;101468.00;;;10.80
19644;BMP180;9970;-36.854;174.870;2023-06-10T14:04:18;101473.00;;;10.80
19644;BMP180;9970;-36.854;174.870;2023-06-10T14:06:51;101473.00;;;10.80
19644;BMP180;9970;-36.854;174.870;2023-06-10T14:09:24;101479.00;;;10.80
19644;BMP180;9970;-36.854;174.870;2023-06-10T14:11:57;101472.00;;;10.80
19644;BMP180;9970;-36.854;174.870;2023-06-10T14:14:30;101465.00;;;10.80
19644;BMP180;9970;-36.854;174.870;2023-06-10T14:17:04;101472.00;;;10.80
19644;BMP180;9970;-36.854;174.870;2023-06-10T14:19:37;101474.00;;;10.70
19644;BMP180;9970;-36.854;174.870;2023-06-10T14:22:11;101466.00;;;10.70
19644;BMP180;9970;-36.854;174.870;2023-06-10T14:24:44;101475.00;;;10.70
19644;BMP180;9970;-36.854;174.870;2023-06-10T14:27:18;101461.00;;;10.70
19644;BMP180;9970;-36.854;174.870;2023-06-10T14:29:52;101466.00;;;10.70
19644;BMP180;9970;-36.854;174.870;2023-06-10T14:32:25;101467.00;;;10.70